Weather at Trebinje Helipad

Public forecast

Using degrees Celsius for public forecast. Weather courtesy of forecast.io.

Closest aviation weather report (METAR) to Trebinje Helipad

Closest report is Dubrovnik Ruđer Bošković Airport, 9.1 nm (16.9 km) SSW.

2024/05/20 11:00 (retrieved 36 minutes ago)

LDDU 201100Z 16009KT 120V210 CAVOK 24/17 Q1012 NOSIG

Closest aviation forecast (TAF) to Trebinje Helipad

Closest forecast is Dubrovnik Ruđer Bošković Airport, 9.1 nm (16.9 km) SSW.

2024/05/20 06:27 (retrieved 5 hours ago)

TAF TAF LDDU 200525Z 2006/2106 20006KT 9999 FEW020 TX25/2014Z TN19/2006Z BECMG 2017/2019 09008KT PROB30 TEMPO 2020/2102 -TSRA FEW025CB SCT035 BECMG 2103/2105 14015KT